Time;durP1;ratioP1;P1;durP2;ratioP2;P2;SDS_P1;SDS_P2;PMS_P1;PMS_P2;Temp;Humidity;BMP_temperature;BMP_pressure;BME280_temperature;BME280_humidity;BME280_pressure;Samples;Min_cycle;Max_cycle;Signal;HPM_P1;HPM_P2
2023/05/06 00:01:53;;;;;;;16.70;6.75;;;;;;;-144.73;100.00;54383.06;5027649;28;20038;-71
2023/05/06 00:04:18;;;;;;;21.55;7.03;;;;;;;-144.73;100.00;54311.22;5014555;28;20021;-71
2023/05/06 00:06:44;;;;;;;22.48;6.50;;;;;;;-144.73;100.00;54325.59;5015523;28;20104;-70
2023/05/06 00:09:09;;;;;;;17.63;6.70;;;;;;;-144.73;100.00;54337.91;5028234;28;20040;-71
2023/05/06 00:11:35;;;;;;;20.20;7.13;;;;;;;-144.73;100.00;54337.91;5029144;28;20037;-72
2023/05/06 00:14:00;;;;;;;21.10;7.28;;;;;;;-144.73;100.00;54366.66;5012489;28;20072;-72
2023/05/06 00:16:26;;;;;;;14.98;6.95;;;;;;;-144.73;100.00;54350.22;5021783;28;20034;-72
2023/05/06 00:18:51;;;;;;;20.80;6.55;;;;;;;-144.73;100.00;54346.13;5011950;28;20032;-72
2023/05/06 00:21:16;;;;;;;25.23;7.35;;;;;;;-144.73;100.00;54387.19;5032065;28;20029;-72
2023/05/06 00:23:42;;;;;;;20.73;7.38;;;;;;;-144.73;100.00;54325.59;5015668;28;20068;-72
2023/05/06 00:26:09;;;;;;;24.17;6.22;;;;;;;-144.73;100.00;54370.75;5015709;28;20090;-72
2023/05/06 00:28:34;;;;;;;22.55;7.28;;;;;;;-144.73;100.00;54362.53;5033168;28;20116;-71
2023/05/06 00:31:00;;;;;;;18.27;6.35;;;;;;;-144.73;100.00;54348.19;5015326;28;20120;-70
2023/05/06 00:33:25;;;;;;;21.40;6.38;;;;;;;-144.73;100.00;54354.34;4996108;28;20029;-71
2023/05/06 00:35:51;;;;;;;17.05;6.75;;;;;;;-144.73;100.00;54354.34;4995795;28;20034;-71
2023/05/06 00:38:18;;;;;;;16.38;6.82;;;;;;;-144.73;100.00;54317.38;5024717;28;20036;-71
2023/05/06 00:40:44;;;;;;;18.60;6.68;;;;;;;-144.73;100.00;54360.50;4997303;28;20022;-71
2023/05/06 00:43:09;;;;;;;22.45;6.70;;;;;;;-144.73;100.00;54362.53;4996238;28;20022;-71
2023/05/06 00:45:35;;;;;;;17.60;6.25;;;;;;;-144.73;100.00;54321.50;5010771;28;20144;-71
2023/05/06 00:48:01;;;;;;;20.83;7.13;;;;;;;-144.73;100.00;54374.84;5010681;28;20044;-71
2023/05/06 00:50:28;;;;;;;16.40;6.55;;;;;;;-144.73;100.00;54342.03;4995147;28;20029;-71
2023/05/06 00:52:56;;;;;;;17.83;6.28;;;;;;;-144.73;100.00;54350.22;5012595;28;20030;-71
2023/05/06 00:55:22;;;;;;;16.95;7.65;;;;;;;-144.73;100.00;54333.81;5005622;28;20057;-71
2023/05/06 00:57:50;;;;;;;17.38;7.20;;;;;;;-144.73;100.00;54346.13;5008732;28;20540;-71
2023/05/06 01:00:16;;;;;;;20.67;7.13;;;;;;;-144.73;100.00;54350.22;5008356;28;20060;-71
2023/05/06 01:02:42;;;;;;;19.90;7.45;;;;;;;-144.73;100.00;54354.34;5001106;28;20033;-71
2023/05/06 01:05:08;;;;;;;23.60;6.80;;;;;;;-144.73;100.00;54362.53;5012358;28;20033;-71
2023/05/06 01:07:43;;;;;;;17.23;6.80;;;;;;;-144.73;100.00;54333.81;5019479;28;20038;-71
2023/05/06 01:10:19;;;;;;;26.23;7.78;;;;;;;-144.73;100.00;54354.34;5003360;28;20034;-71
2023/05/06 01:12:59;;;;;;;20.63;8.15;;;;;;;-144.73;100.00;54356.38;5008520;28;20442;-71
2023/05/06 01:15:43;;;;;;;18.77;7.05;;;;;;;-144.73;100.00;54319.44;5013739;28;20048;-71
2023/05/06 01:18:15;;;;;;;24.63;7.63;;;;;;;-144.73;100.00;54337.91;5021156;28;20041;-71
2023/05/06 01:20:43;;;;;;;16.30;7.18;;;;;;;-144.73;100.00;54342.03;5014422;28;20044;-71
2023/05/06 01:23:13;;;;;;;18.75;7.30;;;;;;;-144.73;100.00;54366.66;5015000;28;20046;-71
2023/05/06 01:25:39;;;;;;;17.63;6.88;;;;;;;-144.73;100.00;54335.88;5023553;28;20025;-71
2023/05/06 01:28:11;;;;;;;18.67;8.02;;;;;;;-144.73;100.00;54389.22;5006012;28;20052;-71
2023/05/06 01:30:54;;;;;;;20.35;7.50;;;;;;;-144.73;100.00;54346.13;5012266;28;20061;-71
2023/05/06 01:33:43;;;;;;;17.50;6.82;;;;;;;-144.73;100.00;54337.91;5012900;28;20068;-72
2023/05/06 01:36:17;;;;;;;31.23;7.78;;;;;;;-144.73;100.00;54292.75;5023737;28;20496;-71
2023/05/06 01:38:56;;;;;;;18.85;7.63;;;;;;;-144.73;100.00;54319.44;5023667;28;20071;-72
2023/05/06 01:41:23;;;;;;;24.83;7.88;;;;;;;-144.73;100.00;54370.75;5013254;28;20496;-71
2023/05/06 01:43:53;;;;;;;14.93;6.40;;;;;;;-144.73;100.00;54395.38;5005767;28;20095;-71
2023/05/06 01:46:22;;;;;;;16.20;7.25;;;;;;;-144.73;100.00;54276.34;5012374;28;20034;-71
2023/05/06 01:48:53;;;;;;;21.85;8.02;;;;;;;-144.73;100.00;54358.44;5031042;28;20036;-71
2023/05/06 01:51:20;;;;;;;18.10;7.82;;;;;;;-144.73;100.00;54358.44;5013569;28;20079;-72
2023/05/06 01:53:45;;;;;;;19.23;8.68;;;;;;;-144.73;100.00;54350.22;5023072;28;20172;-72
2023/05/06 01:56:11;;;;;;;17.85;6.53;;;;;;;-144.73;100.00;54366.66;4998436;28;20096;-71
2023/05/06 01:58:37;;;;;;;15.55;6.50;;;;;;;-144.73;100.00;54313.28;5013158;28;20083;-72
2023/05/06 02:01:02;;;;;;;29.23;9.57;;;;;;;-144.73;100.00;54327.66;5013595;28;20103;-71
2023/05/06 02:03:28;;;;;;;20.83;7.45;;;;;;;-144.73;100.00;54393.34;5013562;28;20026;-71
2023/05/06 02:05:53;;;;;;;18.30;7.70;;;;;;;-144.73;100.00;54352.28;5008956;28;20029;-71
2023/05/06 02:08:18;;;;;;;21.55;7.68;;;;;;;-144.73;100.00;54313.28;5009208;28;20078;-72
2023/05/06 02:10:44;;;;;;;20.33;7.43;;;;;;;-144.73;100.00;54358.44;5008044;28;20034;-72
2023/05/06 02:13:10;;;;;;;18.58;8.18;;;;;;;-144.73;100.00;54358.44;5010092;28;20033;-71
2023/05/06 02:15:35;;;;;;;17.05;7.72;;;;;;;-144.73;100.00;54376.91;5009782;28;20082;-71
2023/05/06 02:18:01;;;;;;;23.05;7.82;;;;;;;-144.73;100.00;54360.50;5008939;28;20124;-71
2023/05/06 02:20:26;;;;;;;26.02;9.27;;;;;;;-144.73;100.00;54370.75;5013012;28;20025;-71
2023/05/06 02:22:51;;;;;;;15.48;7.40;;;;;;;-144.73;100.00;54362.53;5022145;28;20072;-71
2023/05/06 02:25:17;;;;;;;22.27;7.85;;;;;;;-144.73;100.00;54362.53;5009091;28;20033;-71
2023/05/06 02:27:43;;;;;;;19.38;8.98;;;;;;;-144.73;100.00;54378.97;5013003;28;20041;-71
2023/05/06 02:30:09;;;;;;;16.42;8.80;;;;;;;-144.73;100.00;54378.97;5013010;28;20040;-71
2023/05/06 02:32:35;;;;;;;16.00;8.48;;;;;;;-144.73;100.00;54389.22;5008759;28;20044;-71
2023/05/06 02:35:00;;;;;;;21.10;9.73;;;;;;;-144.73;100.00;54372.81;5009318;28;20029;-71
2023/05/06 02:37:26;;;;;;;25.20;8.93;;;;;;;-144.73;100.00;54346.13;5004382;28;20096;-71
2023/05/06 02:39:51;;;;;;;19.52;9.48;;;;;;;-144.73;100.00;54395.38;5024967;28;20048;-72
2023/05/06 02:42:17;;;;;;;20.13;9.80;;;;;;;-144.73;100.00;54372.81;5008298;28;20033;-70
2023/05/06 02:44:42;;;;;;;25.85;9.15;;;;;;;-144.73;100.00;54337.91;5027294;28;20029;-71
2023/05/06 02:47:08;;;;;;;21.15;8.45;;;;;;;-144.73;100.00;54378.97;5012214;28;20048;-72
2023/05/06 02:49:33;;;;;;;20.05;10.32;;;;;;;-144.73;100.00;54350.22;5004617;28;20037;-72
2023/05/06 02:51:58;;;;;;;18.70;10.65;;;;;;;-144.73;100.00;54339.97;5012327;28;20049;-72
2023/05/06 02:54:26;;;;;;;19.10;8.55;;;;;;;-144.73;100.00;54364.59;5018413;28;20049;-71
2023/05/06 02:56:51;;;;;;;21.20;9.45;;;;;;;-144.73;100.00;54370.75;5014312;28;20109;-72
2023/05/06 02:59:17;;;;;;;26.88;10.25;;;;;;;-144.73;100.00;54370.75;5019995;28;20025;-71
2023/05/06 03:01:42;;;;;;;30.25;10.40;;;;;;;-144.73;100.00;54362.53;5027576;28;20045;-71
2023/05/06 03:04:07;;;;;;;21.08;8.35;;;;;;;-144.73;100.00;54385.13;5016531;28;20093;-71
2023/05/06 03:06:33;;;;;;;20.55;9.48;;;;;;;-144.73;100.00;54352.28;5020973;28;20036;-71
2023/05/06 03:08:58;;;;;;;18.80;9.45;;;;;;;-144.73;100.00;54346.13;5030450;28;20036;-71
2023/05/06 03:11:23;;;;;;;25.52;9.52;;;;;;;-144.73;100.00;54354.34;5015410;28;20045;-71
2023/05/06 03:13:49;;;;;;;18.38;8.77;;;;;;;-144.73;100.00;54360.50;5016504;28;20040;-71
2023/05/06 03:16:14;;;;;;;20.65;8.98;;;;;;;-144.73;100.00;54329.72;5003896;28;20113;-71
2023/05/06 03:18:39;;;;;;;24.83;9.13;;;;;;;-144.73;100.00;54354.34;5012683;28;20036;-71
2023/05/06 03:21:05;;;;;;;24.27;9.25;;;;;;;-144.73;100.00;54329.72;5016420;28;20044;-70
2023/05/06 03:23:30;;;;;;;19.95;9.00;;;;;;;-144.73;100.00;54383.06;5015678;28;20177;-70
2023/05/06 03:25:56;;;;;;;21.88;9.25;;;;;;;-144.73;100.00;54362.53;5008853;28;20048;-70
2023/05/06 03:28:21;;;;;;;24.17;8.63;;;;;;;-144.73;100.00;54358.44;5012954;28;20036;-71
2023/05/06 03:30:47;;;;;;;18.15;9.52;;;;;;;-144.73;100.00;54389.22;5006062;28;20139;-71
2023/05/06 03:33:12;;;;;;;17.25;8.88;;;;;;;-144.73;100.00;54387.19;5008599;28;20124;-71
2023/05/06 03:35:38;;;;;;;18.10;8.82;;;;;;;-144.73;100.00;54325.59;5008559;28;20469;-72
2023/05/06 03:38:04;;;;;;;18.17;9.65;;;;;;;-144.73;100.00;54374.84;5008450;28;20489;-72
2023/05/06 03:40:33;;;;;;;18.75;8.93;;;;;;;-144.73;100.00;54389.22;5025166;28;20029;-72
2023/05/06 03:42:58;;;;;;;17.83;9.00;;;;;;;-144.73;100.00;54370.75;5009340;28;20103;-71
2023/05/06 03:45:24;;;;;;;18.67;9.00;;;;;;;-144.73;100.00;54372.81;5037892;28;20096;-71
2023/05/06 03:47:49;;;;;;;17.80;7.93;;;;;;;-144.73;100.00;54370.75;5016953;28;20041;-72
2023/05/06 03:50:15;;;;;;;18.65;8.60;;;;;;;-144.73;100.00;54350.22;5022535;28;20030;-71
2023/05/06 03:52:40;;;;;;;23.15;9.75;;;;;;;-144.73;100.00;54428.22;5015859;28;20038;-72
2023/05/06 03:55:06;;;;;;;17.67;9.70;;;;;;;-144.73;100.00;54391.28;5016430;28;20040;-71
2023/05/06 03:57:31;;;;;;;18.67;8.15;;;;;;;-144.73;100.00;54358.44;5020368;28;20037;-72
2023/05/06 03:59:56;;;;;;;18.85;8.57;;;;;;;-144.73;100.00;54350.22;5012389;28;20048;-71
2023/05/06 04:02:22;;;;;;;20.38;8.15;;;;;;;-144.73;100.00;54378.97;5007180;28;20038;-72
2023/05/06 04:04:47;;;;;;;19.20;9.52;;;;;;;-144.73;100.00;54337.91;5029107;28;20079;-71
2023/05/06 04:07:13;;;;;;;15.80;9.43;;;;;;;-144.73;100.00;54364.59;5033180;28;20523;-72
2023/05/06 04:09:38;;;;;;;21.00;10.10;;;;;;;-144.73;100.00;54360.50;5015733;28;20037;-71
2023/05/06 04:12:04;;;;;;;20.48;8.68;;;;;;;-144.73;100.00;54374.84;5015115;28;20053;-72
2023/05/06 04:14:30;;;;;;;23.02;9.55;;;;;;;-144.73;100.00;54362.53;5005681;28;20034;-70
2023/05/06 04:16:55;;;;;;;17.58;9.35;;;;;;;-144.73;100.00;54360.50;5005409;28;20060;-71
2023/05/06 04:19:22;;;;;;;19.60;9.68;;;;;;;-144.73;100.00;54383.06;5011604;28;20061;-71
2023/05/06 04:21:47;;;;;;;24.58;10.10;;;;;;;-144.73;100.00;54389.22;5014295;28;20033;-71
2023/05/06 04:24:15;;;;;;;21.08;9.60;;;;;;;-144.73;100.00;54329.72;5033285;28;20082;-71
2023/05/06 04:26:41;;;;;;;14.63;9.15;;;;;;;-144.73;100.00;54346.13;5012073;28;20041;-71
2023/05/06 04:29:07;;;;;;;19.88;9.48;;;;;;;-144.73;100.00;54387.19;5015473;28;20033;-71
2023/05/06 04:31:33;;;;;;;19.95;10.10;;;;;;;-144.73;100.00;54370.75;5004799;28;20037;-71
2023/05/06 04:34:00;;;;;;;17.08;9.63;;;;;;;-144.73;100.00;54395.38;5009906;28;20492;-71
2023/05/06 04:36:25;;;;;;;15.95;9.38;;;;;;;-144.73;100.00;54354.34;5031130;28;20504;-71
2023/05/06 04:38:52;;;;;;;23.60;10.45;;;;;;;-144.73;100.00;54366.66;5029744;28;20026;-71
2023/05/06 04:41:17;;;;;;;26.00;9.73;;;;;;;-144.73;100.00;54350.22;5035237;28;20087;-71
2023/05/06 04:43:43;;;;;;;21.95;9.63;;;;;;;-144.73;100.00;54354.34;5003741;28;20034;-71
2023/05/06 04:46:09;;;;;;;17.27;10.05;;;;;;;-144.73;100.00;54395.38;5015480;28;20030;-72
2023/05/06 04:48:35;;;;;;;17.75;9.73;;;;;;;-144.73;100.00;54378.97;5014784;28;20029;-71
2023/05/06 04:51:03;;;;;;;19.85;8.82;;;;;;;-144.73;100.00;54354.34;5031985;28;20041;-71
2023/05/06 04:53:28;;;;;;;21.08;9.77;;;;;;;-144.73;100.00;54383.06;5013692;28;20052;-71
2023/05/06 04:55:54;;;;;;;16.20;8.18;;;;;;;-144.73;100.00;54374.84;5001333;28;20034;-71
2023/05/06 04:58:20;;;;;;;16.10;8.70;;;;;;;-144.73;100.00;54378.97;5008541;28;20055;-71
2023/05/06 05:00:45;;;;;;;15.18;9.20;;;;;;;-144.73;100.00;54378.97;5001835;28;20034;-71
2023/05/06 05:03:10;;;;;;;29.67;10.15;;;;;;;-144.73;100.00;54374.84;5011512;28;20083;-71
2023/05/06 05:05:36;;;;;;;24.20;11.07;;;;;;;-144.73;100.00;54372.81;5032343;28;20041;-71
2023/05/06 05:08:01;;;;;;;23.13;10.27;;;;;;;-144.73;100.00;54344.06;5032275;28;20037;-71
2023/05/06 05:10:26;;;;;;;16.85;9.68;;;;;;;-144.73;100.00;54387.19;5029962;28;20056;-71
2023/05/06 05:12:52;;;;;;;22.08;10.32;;;;;;;-144.73;100.00;54342.03;5000298;28;20079;-71
2023/05/06 05:15:17;;;;;;;20.30;9.35;;;;;;;-144.73;100.00;54342.03;5009192;28;20406;-71
2023/05/06 05:17:43;;;;;;;27.33;10.02;;;;;;;-144.73;100.00;54372.81;5023616;28;20083;-71
2023/05/06 05:20:09;;;;;;;25.05;8.85;;;;;;;-144.73;100.00;54411.81;5014471;28;20108;-71
2023/05/06 05:22:34;;;;;;;18.40;8.90;;;;;;;-144.73;100.00;54358.44;5014393;28;20037;-71
2023/05/06 05:24:59;;;;;;;25.95;9.70;;;;;;;-144.73;100.00;54370.75;5032133;28;20029;-71
2023/05/06 05:27:25;;;;;;;26.30;11.15;;;;;;;-144.73;100.00;54354.34;5031816;28;20121;-71
2023/05/06 05:29:50;;;;;;;21.33;9.30;;;;;;;-144.73;100.00;54372.81;5014460;28;20041;-71
2023/05/06 05:32:15;;;;;;;24.17;10.10;;;;;;;-144.73;100.00;54354.34;5000584;28;20096;-71
2023/05/06 05:34:41;;;;;;;27.00;10.90;;;;;;;-144.73;100.00;54370.75;5020286;28;20077;-71
2023/05/06 05:37:06;;;;;;;20.75;9.95;;;;;;;-144.73;100.00;54366.66;5010648;28;20048;-71
2023/05/06 05:39:32;;;;;;;20.23;10.77;;;;;;;-144.73;100.00;54362.53;4995851;28;20030;-71
2023/05/06 05:41:57;;;;;;;21.70;9.30;;;;;;;-144.73;100.00;54395.38;5007890;28;20102;-72
2023/05/06 05:44:22;;;;;;;21.35;10.80;;;;;;;-144.73;100.00;54354.34;5029956;28;20076;-72
2023/05/06 05:46:48;;;;;;;26.52;11.30;;;;;;;-144.73;100.00;54366.66;5002345;28;20037;-71
2023/05/06 05:49:13;;;;;;;21.58;11.00;;;;;;;-144.73;100.00;54391.28;5019640;28;20085;-72
2023/05/06 05:51:38;;;;;;;25.63;10.90;;;;;;;-144.73;100.00;54358.44;5002140;28;20042;-72
2023/05/06 05:54:04;;;;;;;21.45;10.45;;;;;;;-144.73;100.00;54391.28;5008143;28;20134;-72
2023/05/06 05:56:29;;;;;;;30.38;11.20;;;;;;;-144.73;100.00;54346.13;5013627;28;20085;-71
2023/05/06 05:58:54;;;;;;;24.45;10.73;;;;;;;-144.73;100.00;54374.84;4993904;28;20542;-71
2023/05/06 06:01:20;;;;;;;18.50;10.45;;;;;;;-144.73;100.00;54391.28;5010055;28;20077;-71
2023/05/06 06:03:46;;;;;;;19.80;10.10;;;;;;;-144.73;100.00;54370.75;4993863;28;20032;-72
2023/05/06 06:06:11;;;;;;;23.20;11.35;;;;;;;-144.73;100.00;54378.97;5002435;28;20108;-71
2023/05/06 06:08:37;;;;;;;19.60;10.00;;;;;;;-144.73;100.00;54407.69;5035596;28;20114;-72
2023/05/06 06:11:03;;;;;;;19.48;10.55;;;;;;;-144.73;100.00;54362.53;5030575;28;24627;-72
2023/05/06 06:13:29;;;;;;;17.50;10.30;;;;;;;-144.73;100.00;54362.53;4997068;28;20026;-70
2023/05/06 06:15:57;;;;;;;27.48;10.77;;;;;;;-144.73;100.00;54358.44;4999598;28;20104;-71
2023/05/06 06:18:23;;;;;;;25.40;10.07;;;;;;;-144.73;100.00;54370.75;5002188;28;20028;-72
2023/05/06 06:20:48;;;;;;;20.75;10.18;;;;;;;-144.73;100.00;54344.06;5012796;28;20026;-71
2023/05/06 06:23:14;;;;;;;18.33;10.73;;;;;;;-144.73;100.00;54391.28;5013677;28;20112;-71
2023/05/06 06:25:39;;;;;;;20.33;10.60;;;;;;;-144.73;100.00;54360.50;5013359;28;20105;-71
2023/05/06 06:28:04;;;;;;;25.52;11.45;;;;;;;-144.73;100.00;54346.13;5030620;28;20084;-71
2023/05/06 06:30:30;;;;;;;21.90;11.48;;;;;;;-144.73;100.00;54354.34;5013231;28;20049;-71
2023/05/06 06:32:57;;;;;;;21.80;11.35;;;;;;;-144.73;100.00;54344.06;5012940;28;20048;-71
2023/05/06 06:35:23;;;;;;;26.45;10.75;;;;;;;-144.73;100.00;54387.19;5029342;28;20026;-71
2023/05/06 06:37:48;;;;;;;21.02;11.52;;;;;;;-144.73;100.00;54387.19;5005220;28;20113;-72
2023/05/06 06:40:14;;;;;;;23.65;11.20;;;;;;;-144.73;100.00;54389.22;5030995;28;20030;-71
2023/05/06 06:42:40;;;;;;;18.65;11.63;;;;;;;-144.73;100.00;54370.75;5022344;28;20034;-72
2023/05/06 06:45:07;;;;;;;22.55;11.13;;;;;;;-144.73;100.00;54391.28;5007355;28;20025;-71
2023/05/06 06:47:32;;;;;;;18.98;9.73;;;;;;;-144.73;100.00;54337.91;5030603;28;20076;-72
2023/05/06 06:49:57;;;;;;;17.90;10.88;;;;;;;-144.73;100.00;54376.91;5012898;28;20033;-71
2023/05/06 06:52:23;;;;;;;20.23;11.05;;;;;;;-144.73;100.00;54366.66;4996251;28;20048;-72
2023/05/06 06:54:48;;;;;;;18.33;11.32;;;;;;;-144.73;100.00;54395.38;5005082;28;20068;-72
2023/05/06 06:57:13;;;;;;;17.52;10.85;;;;;;;-144.73;100.00;54374.84;5012911;28;20064;-72
2023/05/06 06:59:39;;;;;;;21.90;10.20;;;;;;;-144.73;100.00;54356.38;5011090;28;20025;-72
2023/05/06 07:02:04;;;;;;;25.95;11.32;;;;;;;-144.73;100.00;54411.81;5009534;28;20065;-72
2023/05/06 07:04:29;;;;;;;21.80;12.00;;;;;;;-144.73;100.00;54362.53;5013280;28;20064;-73
2023/05/06 07:06:55;;;;;;;17.70;11.13;;;;;;;-144.73;100.00;54395.38;5008640;28;20489;-77
2023/05/06 07:09:20;;;;;;;15.25;10.05;;;;;;;-144.73;100.00;54362.53;5010960;28;20040;-72
2023/05/06 07:11:46;;;;;;;30.77;11.10;;;;;;;-144.73;100.00;54424.13;5009234;28;20048;-72
2023/05/06 07:14:11;;;;;;;18.38;10.13;;;;;;;-144.73;100.00;54407.69;5007490;28;20087;-72
2023/05/06 07:16:36;;;;;;;18.10;9.13;;;;;;;-144.73;100.00;54352.28;5013120;28;20142;-72
2023/05/06 07:19:02;;;;;;;17.23;9.40;;;;;;;-144.73;100.00;54383.06;5029990;28;20079;-72
2023/05/06 07:21:30;;;;;;;17.48;10.05;;;;;;;-144.73;100.00;54399.50;5010705;28;20025;-72
2023/05/06 07:23:56;;;;;;;19.95;9.98;;;;;;;-144.73;100.00;54378.97;5010749;28;20022;-72
2023/05/06 07:26:21;;;;;;;18.60;9.75;;;;;;;-144.73;100.00;54378.97;4993042;28;20038;-72
2023/05/06 07:28:47;;;;;;;18.67;8.50;;;;;;;-144.73;100.00;54395.38;4995887;28;20091;-72
2023/05/06 07:31:14;;;;;;;23.48;10.50;;;;;;;-144.73;100.00;54358.44;5006246;28;20034;-72
2023/05/06 07:33:40;;;;;;;22.67;10.40;;;;;;;-144.73;100.00;54374.84;4993249;28;20030;-72
2023/05/06 07:36:05;;;;;;;21.88;9.65;;;;;;;-144.73;100.00;54378.97;4993302;28;20091;-72
2023/05/06 07:38:31;;;;;;;26.38;10.82;;;;;;;-144.73;100.00;54374.84;5021370;28;20121;-72
2023/05/06 07:40:56;;;;;;;23.90;11.00;;;;;;;-144.73;100.00;54366.66;5014743;28;20473;-69
2023/05/06 07:43:22;;;;;;;20.05;10.63;;;;;;;-144.73;100.00;54383.06;5016791;28;20022;-69
2023/05/06 07:45:47;;;;;;;23.50;10.52;;;;;;;-144.73;100.00;54385.13;5019230;28;20029;-69
2023/05/06 07:48:12;;;;;;;16.00;9.48;;;;;;;-144.73;100.00;54364.59;5020543;28;20022;-70
2023/05/06 07:50:38;;;;;;;23.77;10.10;;;;;;;-144.73;100.00;54420.00;5019953;28;20033;-70
2023/05/06 07:53:03;;;;;;;24.77;10.45;;;;;;;-144.73;100.00;54383.06;5016400;28;20037;-69
2023/05/06 07:55:28;;;;;;;20.67;9.20;;;;;;;-144.73;100.00;54415.91;5020453;28;20032;-70
2023/05/06 07:57:54;;;;;;;17.77;9.18;;;;;;;-144.73;100.00;54434.38;5019243;28;20099;-70
2023/05/06 08:00:19;;;;;;;21.80;9.30;;;;;;;-144.73;100.00;54354.34;5019293;28;20029;-70
2023/05/06 08:02:46;;;;;;;15.82;8.90;;;;;;;-144.73;100.00;54376.91;5022785;28;20038;-70
2023/05/06 08:05:12;;;;;;;16.20;9.60;;;;;;;-144.73;100.00;54374.84;5013787;28;20090;-70
2023/05/06 08:07:40;;;;;;;14.70;8.95;;;;;;;-144.73;100.00;54452.84;5021506;28;20041;-70
2023/05/06 08:10:06;;;;;;;20.75;9.60;;;;;;;-144.73;100.00;54399.50;5021485;28;20027;-70
2023/05/06 08:12:31;;;;;;;17.55;9.75;;;;;;;-144.73;100.00;54395.38;5019215;28;20123;-68
2023/05/06 08:14:57;;;;;;;19.65;9.68;;;;;;;-144.73;100.00;54376.91;5016382;28;20029;-69
2023/05/06 08:17:22;;;;;;;26.95;10.35;;;;;;;-144.73;100.00;54383.06;5020452;28;20103;-69
2023/05/06 08:19:48;;;;;;;20.63;10.32;;;;;;;-144.73;100.00;54407.69;5018550;28;20076;-69
2023/05/06 08:22:15;;;;;;;24.95;10.15;;;;;;;-144.73;100.00;54391.28;5016921;28;20041;-70
2023/05/06 08:24:40;;;;;;;20.17;10.25;;;;;;;-144.73;100.00;54407.69;5017692;28;20064;-69
2023/05/06 08:27:06;;;;;;;19.52;11.70;;;;;;;-144.73;100.00;54387.19;5013941;28;20038;-69
2023/05/06 08:29:31;;;;;;;25.85;11.57;;;;;;;-144.73;100.00;54362.53;5016292;28;20184;-68
2023/05/06 08:31:57;;;;;;;17.33;10.32;;;;;;;-144.73;100.00;54374.84;5017561;28;20092;-69
2023/05/06 08:34:22;;;;;;;18.67;10.30;;;;;;;-144.73;100.00;54366.66;5018357;28;20014;-69
2023/05/06 08:36:48;;;;;;;23.55;10.20;;;;;;;-144.73;100.00;54366.66;5020513;28;20037;-69
2023/05/06 08:39:13;;;;;;;23.90;10.27;;;;;;;-144.73;100.00;54358.44;5023728;28;20045;-69
2023/05/06 08:41:40;;;;;;;18.65;9.93;;;;;;;-144.73;100.00;54329.72;5017494;28;20077;-69
2023/05/06 08:44:07;;;;;;;16.00;9.48;;;;;;;-144.73;100.00;54376.91;5015525;28;20025;-69
2023/05/06 08:46:33;;;;;;;25.55;10.50;;;;;;;-144.73;100.00;54420.00;5015422;28;20419;-69
2023/05/06 08:48:58;;;;;;;23.63;10.43;;;;;;;-144.73;100.00;54354.34;5020577;28;20017;-70
2023/05/06 08:51:31;;;;;;;19.92;9.30;;;;;;;-144.73;100.00;54374.84;5017058;28;20036;-69
2023/05/06 08:54:00;;;;;;;20.23;9.32;;;;;;;-144.73;100.00;54374.84;5018977;28;20393;-70
2023/05/06 08:56:29;;;;;;;25.45;9.85;;;;;;;-144.73;100.00;54381.00;5024365;28;20033;-71
2023/05/06 08:58:57;;;;;;;23.20;10.45;;;;;;;-144.73;100.00;54378.97;5016324;28;20039;-70
2023/05/06 09:01:40;;;;;;;22.02;10.77;;;;;;;-144.73;100.00;54337.91;5018098;28;20870;-70
2023/05/06 09:04:08;;;;;;;25.30;14.20;;;;;;;-144.73;100.00;54362.53;5036394;28;20095;-69
2023/05/06 09:06:34;;;;;;;33.78;18.75;;;;;;;-144.73;100.00;54378.97;5022179;28;20519;-69
2023/05/06 09:08:59;;;;;;;19.83;10.45;;;;;;;-144.73;100.00;54399.50;5023068;28;20013;-70
2023/05/06 09:11:28;;;;;;;20.35;11.43;;;;;;;-144.73;100.00;54346.13;5021653;28;20405;-70
2023/05/06 09:14:07;;;;;;;23.38;11.00;;;;;;;-144.73;100.00;54413.84;5019950;28;20044;-70
2023/05/06 09:16:38;;;;;;;27.00;11.07;;;;;;;-144.73;100.00;54370.75;5022011;28;20037;-69
2023/05/06 09:19:03;;;;;;;16.77;10.37;;;;;;;-144.73;100.00;54374.84;5034434;28;20018;-69
2023/05/06 09:21:37;;;;;;;22.65;12.00;;;;;;;-144.73;100.00;54372.81;5016297;28;20272;-69
2023/05/06 09:24:05;;;;;;;18.70;11.27;;;;;;;-144.73;100.00;54383.06;5020826;28;20017;-69
2023/05/06 09:26:35;;;;;;;34.20;12.02;;;;;;;-144.73;100.00;54350.22;5020701;28;20037;-69
2023/05/06 09:29:04;;;;;;;26.50;11.93;;;;;;;-144.73;100.00;54391.28;5021816;28;20017;-70
2023/05/06 09:31:30;;;;;;;21.38;11.50;;;;;;;-144.73;100.00;54360.50;5022475;28;20111;-69
2023/05/06 09:33:58;;;;;;;19.33;10.07;;;;;;;-144.73;100.00;54362.53;5018048;28;20033;-70
2023/05/06 09:36:26;;;;;;;19.75;10.77;;;;;;;-144.73;100.00;54391.28;5016523;28;20038;-68
2023/05/06 09:38:54;;;;;;;16.92;9.90;;;;;;;-144.73;100.00;54395.38;5010248;28;20536;-69
2023/05/06 09:41:21;;;;;;;17.42;10.30;;;;;;;-144.73;100.00;54352.28;4998092;28;20042;-68
2023/05/06 09:43:48;;;;;;;20.48;9.80;;;;;;;-144.73;100.00;54370.75;5010652;28;20029;-68
2023/05/06 09:46:17;;;;;;;21.73;10.23;;;;;;;-144.73;100.00;54370.75;5011176;28;20037;-68
2023/05/06 09:48:44;;;;;;;17.70;10.10;;;;;;;-144.73;100.00;54370.75;5014683;28;20029;-68
2023/05/06 09:51:10;;;;;;;21.80;10.88;;;;;;;-144.73;100.00;54385.13;5025088;28;20045;-69
2023/05/06 09:53:36;;;;;;;16.35;11.32;;;;;;;-144.73;100.00;54370.75;5015487;28;20017;-68
2023/05/06 09:56:06;;;;;;;21.45;10.85;;;;;;;-144.73;100.00;54432.31;5012321;28;20063;-68
2023/05/06 09:58:32;;;;;;;18.92;10.48;;;;;;;-144.73;100.00;54358.44;5013910;28;20021;-68
2023/05/06 10:00:58;;;;;;;19.95;10.32;;;;;;;-144.73;100.00;54413.84;5005408;28;20047;-68
2023/05/06 10:03:25;;;;;;;20.10;10.18;;;;;;;-144.73;100.00;54354.34;5002923;28;20704;-69
2023/05/06 10:05:52;;;;;;;20.20;10.68;;;;;;;-144.73;100.00;54354.34;5005939;28;20053;-69
2023/05/06 10:08:17;;;;;;;14.55;9.65;;;;;;;-144.73;100.00;54415.91;5007676;28;20112;-69
2023/05/06 10:10:46;;;;;;;19.98;11.02;;;;;;;-144.73;100.00;54374.84;5011512;28;20430;-69
2023/05/06 10:13:12;;;;;;;21.77;10.38;;;;;;;-144.73;100.00;54387.19;5010094;28;20097;-69
2023/05/06 10:15:38;;;;;;;17.08;10.00;;;;;;;-144.73;100.00;54362.53;4999070;28;20026;-69
2023/05/06 10:18:05;;;;;;;25.10;13.13;;;;;;;-144.73;100.00;54383.06;5005582;28;20044;-68
2023/05/06 10:20:34;;;;;;;24.80;10.65;;;;;;;-144.73;100.00;54393.34;5004688;28;20033;-69
2023/05/06 10:23:11;;;;;;;18.25;10.38;;;;;;;-144.73;100.00;54415.91;4998866;28;20034;-70
2023/05/06 10:25:39;;;;;;;21.27;11.07;;;;;;;-144.73;100.00;54428.22;5007689;28;20036;-70
2023/05/06 10:28:06;;;;;;;28.67;10.95;;;;;;;-144.73;100.00;54407.69;4998523;28;20524;-69
2023/05/06 10:30:37;;;;;;;20.40;10.30;;;;;;;-144.73;100.00;54378.97;5012200;28;20028;-70
2023/05/06 10:33:06;;;;;;;22.90;10.80;;;;;;;-144.73;100.00;54413.84;5008269;28;20038;-68
2023/05/06 10:35:55;;;;;;;21.92;11.55;;;;;;;-144.73;100.00;54407.69;5015840;28;20104;-68
2023/05/06 10:38:28;;;;;;;21.85;11.80;;;;;;;-144.73;100.00;54374.84;4999692;28;20037;-68
2023/05/06 10:40:55;;;;;;;24.38;11.50;;;;;;;-144.73;100.00;54362.53;4997458;28;20057;-69
2023/05/06 10:43:27;;;;;;;24.10;12.25;;;;;;;-144.73;100.00;54407.69;5010295;28;20376;-69
2023/05/06 10:46:10;;;;;;;21.35;10.43;;;;;;;-144.73;100.00;54362.53;5001323;28;20026;-69
2023/05/06 10:48:38;;;;;;;17.13;10.73;;;;;;;-144.73;100.00;54378.97;5005781;28;20026;-70
2023/05/06 10:51:12;;;;;;;27.63;12.57;;;;;;;-144.73;100.00;54385.13;4999273;28;20038;-70
2023/05/06 10:53:57;;;;;;;20.80;11.45;;;;;;;-144.73;100.00;54372.81;4999695;28;20038;-70
2023/05/06 10:56:27;;;;;;;22.27;11.05;;;;;;;-144.73;100.00;54424.13;5009132;28;20519;-68